Time;durP1;ratioP1;P1;durP2;ratioP2;P2;SDS_P1;SDS_P2;PMS_P1;PMS_P2;Temp;Humidity;BMP_temperature;BMP_pressure;BME280_temperature;BME280_humidity;BME280_pressure;Samples;Min_cycle;Max_cycle;Signal;HPM_P1;HPM_P2
2023/09/11 00:00:12;;;;;;;11.02;6.30;;;;;;;-141.50;100.00;63355.56;5023939;28;20057;-81
2023/09/11 00:02:39;;;;;;;11.95;5.53;;;;;;;-141.50;100.00;63355.56;5032584;28;20049;-80
2023/09/11 00:05:06;;;;;;;9.02;5.07;;;;;;;-141.50;100.00;63355.56;5038366;28;20288;-79
2023/09/11 00:07:33;;;;;;;11.40;5.45;;;;;;;-141.50;100.00;63355.56;5048505;28;20405;-79
2023/09/11 00:10:06;;;;;;;11.25;5.93;;;;;;;-141.50;100.00;63355.56;5035249;28;21070;-81
2023/09/11 00:12:33;;;;;;;10.60;5.93;;;;;;;-141.50;100.00;63355.56;5033397;28;20045;-80
2023/09/11 00:15:00;;;;;;;10.05;6.13;;;;;;;-141.50;100.00;63355.56;5019290;28;20560;-79
2023/09/11 00:17:27;;;;;;;10.88;5.95;;;;;;;-141.50;100.00;63355.56;5055092;28;20053;-80
2023/09/11 00:19:54;;;;;;;12.15;6.38;;;;;;;-141.50;100.00;63355.56;5038555;28;20075;-80
2023/09/11 00:22:21;;;;;;;11.32;6.10;;;;;;;-141.50;100.00;63355.56;5039471;28;20045;-79
2023/09/11 00:24:48;;;;;;;9.68;5.85;;;;;;;-141.50;100.00;63355.56;5057795;28;20048;-78
2023/09/11 00:27:15;;;;;;;10.45;5.93;;;;;;;-141.50;100.00;63355.56;5038832;28;20048;-78
2023/09/11 00:29:42;;;;;;;10.13;5.93;;;;;;;-141.50;100.00;63355.56;5064788;28;20040;-80
2023/09/11 00:32:08;;;;;;;11.05;6.05;;;;;;;-141.50;100.00;63355.56;5049892;28;20102;-81
2023/09/11 00:34:35;;;;;;;11.00;5.75;;;;;;;-141.50;100.00;63355.56;5071110;28;20049;-79
2023/09/11 00:37:02;;;;;;;9.43;5.72;;;;;;;-141.50;100.00;63355.56;5059308;28;20048;-80
2023/09/11 00:39:29;;;;;;;14.85;6.20;;;;;;;-141.50;100.00;63355.56;5065712;28;20068;-80
2023/09/11 00:41:56;;;;;;;11.95;5.72;;;;;;;-141.50;100.00;63355.56;5073893;28;20059;-80
2023/09/11 00:44:23;;;;;;;10.00;5.63;;;;;;;-141.50;100.00;63355.56;5052152;28;20072;-80
2023/09/11 00:46:50;;;;;;;13.60;6.18;;;;;;;-141.50;100.00;63355.56;5053628;28;20063;-81
2023/09/11 00:49:19;;;;;;;11.05;5.97;;;;;;;-141.50;100.00;63355.56;5053804;28;20044;-81
2023/09/11 00:51:47;;;;;;;9.93;5.40;;;;;;;-141.50;100.00;63355.56;5048165;28;20053;-81
2023/09/11 00:54:14;;;;;;;9.85;5.60;;;;;;;-141.50;100.00;63355.56;5035574;28;20060;-81
2023/09/11 00:56:41;;;;;;;11.32;6.22;;;;;;;-141.50;100.00;63355.56;5036332;28;20073;-82
2023/09/11 00:59:10;;;;;;;10.40;5.78;;;;;;;-141.50;100.00;63355.56;5045497;28;20101;-80
2023/09/11 01:01:37;;;;;;;11.52;5.78;;;;;;;-141.50;100.00;63355.56;5037853;28;20116;-80
2023/09/11 01:04:04;;;;;;;9.68;6.10;;;;;;;-141.50;100.00;63355.56;5051944;28;20049;-81
2023/09/11 01:06:31;;;;;;;10.63;5.95;;;;;;;-141.50;100.00;63355.56;5062071;28;20044;-81
2023/09/11 01:09:01;;;;;;;12.30;6.38;;;;;;;-141.50;100.00;63355.56;5038983;28;20136;-79
2023/09/11 01:11:28;;;;;;;11.85;6.60;;;;;;;-141.50;100.00;63355.56;5033696;28;20064;-80
2023/09/11 01:14:00;;;;;;;10.48;5.82;;;;;;;-141.50;100.00;63355.56;5053261;28;20048;-80
2023/09/11 01:16:43;;;;;;;12.00;6.50;;;;;;;-141.50;100.00;63355.56;5039154;28;20590;-79
2023/09/11 01:19:36;;;;;;;11.10;6.40;;;;;;;-141.50;100.00;63355.56;5038761;28;20453;-81
2023/09/11 01:22:04;;;;;;;12.75;6.32;;;;;;;-141.50;100.00;63355.56;5042442;28;20040;-80
2023/09/11 01:24:36;;;;;;;13.75;6.53;;;;;;;-141.50;100.00;63355.56;5029298;28;20506;-81
2023/09/11 01:27:16;;;;;;;12.02;6.63;;;;;;;-141.50;100.00;63355.56;5052855;28;20057;-81
2023/09/11 01:29:44;;;;;;;11.27;6.13;;;;;;;-141.50;100.00;63355.56;5055098;28;20388;-82
2023/09/11 01:32:13;;;;;;;12.50;6.43;;;;;;;-141.50;100.00;63355.56;5036977;28;20041;-80
2023/09/11 01:34:40;;;;;;;11.45;6.25;;;;;;;-141.50;100.00;63355.56;5036217;28;20068;-80
2023/09/11 01:37:06;;;;;;;11.85;6.70;;;;;;;-141.50;100.00;63355.56;5039972;28;20049;-80
2023/09/11 01:39:33;;;;;;;12.85;6.95;;;;;;;-141.50;100.00;63355.56;5024759;28;20416;-80
2023/09/11 01:42:09;;;;;;;12.93;7.13;;;;;;;-141.50;100.00;63355.56;5023797;28;20116;-79
2023/09/11 01:44:43;;;;;;;13.43;6.60;;;;;;;-141.50;100.00;63355.56;5058994;28;20120;-80
2023/09/11 01:47:14;;;;;;;11.35;6.30;;;;;;;-141.50;100.00;63355.56;5050036;28;20056;-81
2023/09/11 01:49:42;;;;;;;12.55;6.63;;;;;;;-141.50;100.00;63355.56;5056358;28;20045;-80
2023/09/11 01:52:11;;;;;;;10.30;6.43;;;;;;;-141.50;100.00;63355.56;5041605;28;20067;-80
2023/09/11 01:54:38;;;;;;;12.55;6.55;;;;;;;-141.50;100.00;63355.56;5042273;28;20044;-81
2023/09/11 01:57:06;;;;;;;11.65;6.63;;;;;;;-141.50;100.00;63355.56;5057667;28;20037;-81
2023/09/11 01:59:33;;;;;;;13.73;7.07;;;;;;;-141.50;100.00;63355.56;5039152;28;20049;-81
2023/09/11 02:02:00;;;;;;;12.77;6.53;;;;;;;-141.50;100.00;63355.56;5057262;28;20040;-80
2023/09/11 02:04:28;;;;;;;10.63;6.15;;;;;;;-141.50;100.00;63355.56;5045952;28;20045;-80
2023/09/11 02:06:55;;;;;;;12.35;7.03;;;;;;;-141.50;100.00;63355.56;5029647;28;20045;-80
2023/09/11 02:09:22;;;;;;;12.98;6.38;;;;;;;-141.50;100.00;63355.56;5047292;28;20071;-81
2023/09/11 02:11:49;;;;;;;12.45;6.65;;;;;;;-141.50;100.00;63355.56;5016836;28;20041;-81
2023/09/11 02:14:16;;;;;;;13.07;6.72;;;;;;;-141.50;100.00;63355.56;5027742;28;20072;-81
2023/09/11 02:16:42;;;;;;;10.07;6.03;;;;;;;-141.50;100.00;63355.56;5054585;28;20044;-80
2023/09/11 02:19:09;;;;;;;13.65;6.72;;;;;;;-141.50;100.00;63355.56;5027033;28;20054;-80
2023/09/11 02:21:39;;;;;;;13.27;7.10;;;;;;;-141.50;100.00;63355.56;5020776;28;20037;-81
2023/09/11 02:24:06;;;;;;;11.70;6.43;;;;;;;-141.50;100.00;63355.56;5063656;28;20127;-82
2023/09/11 02:26:32;;;;;;;11.13;5.75;;;;;;;-141.50;100.00;63355.56;5032605;28;20049;-80
2023/09/11 02:28:59;;;;;;;11.77;5.97;;;;;;;-141.50;100.00;63355.56;5039375;28;20051;-80
2023/09/11 02:31:26;;;;;;;11.18;6.10;;;;;;;-141.50;100.00;63355.56;5049696;28;20128;-80
2023/09/11 02:33:57;;;;;;;13.70;5.95;;;;;;;-141.50;100.00;63355.56;5034958;28;20060;-79
2023/09/11 02:36:24;;;;;;;9.70;5.75;;;;;;;-141.50;100.00;63355.56;5041956;28;20508;-80
2023/09/11 02:38:50;;;;;;;10.30;5.47;;;;;;;-141.50;100.00;63355.56;5043847;28;20048;-80
2023/09/11 02:41:17;;;;;;;13.30;5.60;;;;;;;-141.50;100.00;63355.56;5045110;28;20045;-81
2023/09/11 02:43:44;;;;;;;13.02;6.88;;;;;;;-141.50;100.00;63355.56;5059493;28;20071;-81
2023/09/11 02:46:11;;;;;;;11.23;5.78;;;;;;;-141.50;100.00;63355.56;5028353;28;20572;-81
2023/09/11 02:48:45;;;;;;;10.73;6.10;;;;;;;-141.50;100.00;63355.56;5044394;28;20053;-81
2023/09/11 02:51:13;;;;;;;11.57;6.65;;;;;;;-141.50;100.00;63355.56;5038285;28;20077;-80
2023/09/11 02:53:41;;;;;;;13.48;6.70;;;;;;;-141.50;100.00;63355.56;5041279;28;20045;-80
2023/09/11 02:56:07;;;;;;;11.55;6.15;;;;;;;-141.50;100.00;63355.56;5030399;28;20056;-81
2023/09/11 02:58:34;;;;;;;11.13;6.20;;;;;;;-141.50;100.00;63355.56;5062581;28;20048;-81
2023/09/11 03:01:03;;;;;;;11.95;6.55;;;;;;;-141.50;100.00;63355.56;5035151;28;20106;-80
2023/09/11 03:03:30;;;;;;;11.85;6.43;;;;;;;-141.50;100.00;63355.56;5043601;28;20067;-80
2023/09/11 03:06:02;;;;;;;12.70;6.97;;;;;;;-141.50;100.00;63355.56;5061744;28;20044;-80
2023/09/11 03:08:29;;;;;;;10.05;6.43;;;;;;;-141.50;100.00;63355.56;5031885;28;20049;-81
2023/09/11 03:11:10;;;;;;;13.55;6.93;;;;;;;-141.50;100.00;63355.56;5060214;28;20060;-81
2023/09/11 03:13:38;;;;;;;14.20;7.10;;;;;;;-141.50;100.00;63355.56;5067779;28;20103;-81
2023/09/11 03:16:11;;;;;;;12.13;6.70;;;;;;;-141.50;100.00;63355.56;5062512;28;20056;-82
2023/09/11 03:18:40;;;;;;;12.07;6.47;;;;;;;-141.50;100.00;63355.56;5047099;28;20051;-82
2023/09/11 03:21:08;;;;;;;11.05;6.20;;;;;;;-141.50;100.00;63355.56;5046619;28;20091;-81
2023/09/11 03:23:36;;;;;;;13.50;6.60;;;;;;;-141.50;100.00;63355.56;5046512;28;20064;-81
2023/09/11 03:26:11;;;;;;;12.65;6.57;;;;;;;-141.50;100.00;63355.56;5046644;28;20049;-81
2023/09/11 03:28:39;;;;;;;13.90;6.55;;;;;;;-141.50;100.00;63355.56;5058846;28;20057;-82
2023/09/11 03:31:06;;;;;;;10.90;6.00;;;;;;;-141.50;100.00;63355.56;5061630;28;20189;-81
2023/09/11 03:33:32;;;;;;;13.73;6.30;;;;;;;-141.50;100.00;63355.56;5044769;28;20032;-81
2023/09/11 03:35:59;;;;;;;13.35;6.78;;;;;;;-141.50;100.00;63355.56;5029627;28;20048;-81
2023/09/11 03:38:26;;;;;;;13.82;6.53;;;;;;;-141.50;100.00;63355.56;5043064;28;20049;-81
2023/09/11 03:40:53;;;;;;;14.70;7.55;;;;;;;-141.50;100.00;63355.56;5062801;28;20045;-81
2023/09/11 03:43:23;;;;;;;12.05;6.45;;;;;;;-141.50;100.00;63355.56;5034509;28;20527;-80
2023/09/11 03:45:52;;;;;;;10.77;6.95;;;;;;;-141.50;100.00;63355.56;5043617;28;20041;-82
2023/09/11 03:48:19;;;;;;;15.38;7.40;;;;;;;-141.50;100.00;63355.56;5039148;28;20446;-79
2023/09/11 03:50:46;;;;;;;13.35;7.18;;;;;;;-141.50;100.00;63355.56;5038012;28;20049;-80
2023/09/11 03:53:13;;;;;;;11.52;6.82;;;;;;;-141.50;100.00;63355.56;5056407;28;20645;-80
2023/09/11 03:55:40;;;;;;;12.57;6.97;;;;;;;-141.50;100.00;63355.56;5034738;28;20067;-80
2023/09/11 03:58:10;;;;;;;14.23;7.03;;;;;;;-141.50;100.00;63355.56;5026630;28;20107;-81
2023/09/11 04:00:37;;;;;;;13.68;6.90;;;;;;;-141.50;100.00;63355.56;5020160;28;20287;-81
2023/09/11 04:03:04;;;;;;;11.15;6.22;;;;;;;-141.50;100.00;63355.56;5047693;28;20053;-80
2023/09/11 04:05:31;;;;;;;12.52;6.80;;;;;;;-141.50;100.00;63355.56;5021943;28;20113;-81
2023/09/11 04:07:58;;;;;;;13.40;6.60;;;;;;;-141.50;100.00;63355.56;5061888;28;20875;-81
2023/09/11 04:10:25;;;;;;;10.73;5.65;;;;;;;-141.50;100.00;63355.56;5045245;28;20083;-81
2023/09/11 04:12:52;;;;;;;12.00;6.88;;;;;;;-141.50;100.00;63355.56;5057973;28;20045;-81
2023/09/11 04:15:19;;;;;;;12.98;7.07;;;;;;;-141.50;100.00;63355.56;5044428;28;20403;-82
2023/09/11 04:17:46;;;;;;;13.45;6.30;;;;;;;-141.50;100.00;63355.56;5037747;28;20048;-81
2023/09/11 04:20:13;;;;;;;12.10;6.18;;;;;;;-141.50;100.00;63355.56;5036989;28;20095;-80
2023/09/11 04:22:39;;;;;;;12.27;6.38;;;;;;;-141.50;100.00;63355.56;5037307;28;20045;-81
2023/09/11 04:25:06;;;;;;;11.30;6.50;;;;;;;-141.50;100.00;63355.56;5037826;28;20048;-81
2023/09/11 04:27:33;;;;;;;12.40;6.85;;;;;;;-141.50;100.00;63355.56;5029497;28;20047;-80
2023/09/11 04:30:01;;;;;;;13.60;6.15;;;;;;;-141.50;100.00;63355.56;5025588;28;20415;-79
2023/09/11 04:32:27;;;;;;;13.40;6.32;;;;;;;-141.50;100.00;63355.56;5048982;28;20053;-81
2023/09/11 04:34:54;;;;;;;14.05;6.82;;;;;;;-141.50;100.00;63355.56;5047229;28;20055;-80
2023/09/11 04:37:21;;;;;;;15.07;6.88;;;;;;;-141.50;100.00;63355.56;5040677;28;20059;-81
2023/09/11 04:39:48;;;;;;;9.82;6.13;;;;;;;-141.50;100.00;63355.56;5047409;28;20032;-80
2023/09/11 04:42:15;;;;;;;13.70;6.63;;;;;;;-141.50;100.00;63355.56;5051146;28;20056;-83
2023/09/11 04:44:42;;;;;;;13.15;6.25;;;;;;;-141.50;100.00;63355.56;5058257;28;20053;-79
2023/09/11 04:47:09;;;;;;;14.88;7.55;;;;;;;-141.50;100.00;63355.56;5061543;28;20494;-82
2023/09/11 04:49:36;;;;;;;14.35;7.20;;;;;;;-141.50;100.00;63355.56;5023112;28;20097;-82
2023/09/11 04:52:03;;;;;;;14.93;6.93;;;;;;;-141.50;100.00;63355.56;5012514;28;20045;-81
2023/09/11 04:54:30;;;;;;;14.73;7.05;;;;;;;-141.50;100.00;63355.56;5026578;28;20041;-82
2023/09/11 04:56:57;;;;;;;14.90;7.18;;;;;;;-141.50;100.00;63355.56;5003098;28;20060;-82
2023/09/11 04:59:24;;;;;;;17.40;7.50;;;;;;;-141.50;100.00;63355.56;5034256;28;20045;-82
2023/09/11 05:01:51;;;;;;;15.00;6.70;;;;;;;-141.50;100.00;63355.56;5037562;28;20052;-83
2023/09/11 05:04:17;;;;;;;12.50;6.75;;;;;;;-141.50;100.00;63355.56;5038121;28;20052;-82
2023/09/11 05:06:44;;;;;;;15.07;6.68;;;;;;;-141.50;100.00;63355.56;5058454;28;20518;-79
2023/09/11 05:09:14;;;;;;;12.23;6.38;;;;;;;-141.50;100.00;63355.56;5034404;28;20053;-80
2023/09/11 05:11:44;;;;;;;11.57;6.32;;;;;;;-141.50;100.00;63355.56;5041853;28;20453;-80
2023/09/11 05:14:13;;;;;;;12.13;5.93;;;;;;;-141.50;100.00;63355.56;5020473;28;20396;-80
2023/09/11 05:16:40;;;;;;;13.93;7.45;;;;;;;-141.50;100.00;63355.56;5033306;28;20106;-78
2023/09/11 05:19:07;;;;;;;14.05;7.15;;;;;;;-141.50;100.00;63355.56;5034125;28;20053;-78
2023/09/11 05:21:34;;;;;;;14.55;6.53;;;;;;;-141.50;100.00;63355.56;5038521;28;20107;-78
2023/09/11 05:24:01;;;;;;;16.35;6.78;;;;;;;-141.50;100.00;63355.56;5056116;28;20055;-80
2023/09/11 05:26:28;;;;;;;12.48;6.65;;;;;;;-141.50;100.00;63355.56;5027923;28;20051;-80
2023/09/11 05:28:55;;;;;;;12.85;6.60;;;;;;;-141.50;100.00;63355.56;5041770;28;20045;-79
2023/09/11 05:31:22;;;;;;;11.13;5.95;;;;;;;-141.50;100.00;63355.56;5062416;28;20053;-79
2023/09/11 05:33:49;;;;;;;11.15;6.10;;;;;;;-141.50;100.00;63355.56;5041434;28;20046;-78
2023/09/11 05:36:18;;;;;;;13.45;6.88;;;;;;;-141.50;100.00;63355.56;5025957;28;20071;-80
2023/09/11 05:38:47;;;;;;;13.32;6.93;;;;;;;-141.50;100.00;63355.56;5039532;28;20048;-80
2023/09/11 05:41:14;;;;;;;12.02;6.82;;;;;;;-141.50;100.00;63355.56;5045275;28;20055;-80
2023/09/11 05:43:41;;;;;;;12.80;6.32;;;;;;;-141.50;100.00;63355.56;5061838;28;20056;-79
2023/09/11 05:46:08;;;;;;;13.85;6.53;;;;;;;-141.50;100.00;63355.56;5044400;28;20049;-79
2023/09/11 05:48:35;;;;;;;15.43;7.13;;;;;;;-141.50;100.00;63355.56;5022312;28;20045;-78
2023/09/11 05:51:02;;;;;;;13.45;7.50;;;;;;;-141.50;100.00;63355.56;5037081;28;20057;-79
2023/09/11 05:53:29;;;;;;;11.25;6.50;;;;;;;-141.50;100.00;63355.56;5059175;28;20059;-78
2023/09/11 05:55:56;;;;;;;12.60;6.63;;;;;;;-141.50;100.00;63355.56;5043908;28;20049;-78
2023/09/11 05:58:25;;;;;;;15.07;6.60;;;;;;;-141.50;100.00;63355.56;5060702;28;20100;-79
2023/09/11 06:00:54;;;;;;;12.93;6.70;;;;;;;-141.50;100.00;63355.56;5022405;28;20045;-79
2023/09/11 06:03:21;;;;;;;13.82;6.72;;;;;;;-141.50;100.00;63355.56;5030095;28;20396;-79
2023/09/11 06:05:48;;;;;;;13.82;7.35;;;;;;;-141.50;100.00;63355.56;5036438;28;20048;-78
2023/09/11 06:08:15;;;;;;;11.70;6.47;;;;;;;-141.50;100.00;63355.56;5061733;28;20133;-79
2023/09/11 06:10:43;;;;;;;13.43;7.25;;;;;;;-141.50;100.00;63355.56;5063821;28;20049;-80
2023/09/11 06:13:10;;;;;;;13.60;7.38;;;;;;;-141.50;100.00;63355.56;5037038;28;20686;-79
2023/09/11 06:15:37;;;;;;;13.65;7.75;;;;;;;-141.50;100.00;63355.56;5058548;28;20049;-79
2023/09/11 06:18:04;;;;;;;13.75;8.05;;;;;;;-141.50;100.00;63355.56;5054613;28;20056;-80
2023/09/11 06:20:31;;;;;;;16.65;8.13;;;;;;;-141.50;100.00;63355.56;5047197;28;20059;-79
2023/09/11 06:22:58;;;;;;;15.05;8.65;;;;;;;-141.50;100.00;63355.56;5049401;28;20063;-79
2023/09/11 06:25:25;;;;;;;14.88;8.38;;;;;;;-141.50;100.00;63355.56;5046522;28;20049;-80
2023/09/11 06:27:52;;;;;;;14.07;8.27;;;;;;;-141.50;100.00;63355.56;5064096;28;20049;-80
2023/09/11 06:30:19;;;;;;;18.27;9.15;;;;;;;-141.50;100.00;63355.56;5066364;28;20047;-80
2023/09/11 06:32:46;;;;;;;16.42;9.05;;;;;;;-141.50;100.00;63355.56;5063873;28;20048;-80
2023/09/11 06:35:12;;;;;;;16.23;8.68;;;;;;;-141.50;100.00;63355.56;5066158;28;20424;-80
2023/09/11 06:37:40;;;;;;;16.35;8.43;;;;;;;-141.50;100.00;63355.56;5032133;28;20165;-79
2023/09/11 06:40:09;;;;;;;19.02;9.50;;;;;;;-141.50;100.00;63355.56;5041741;28;20253;-79
2023/09/11 06:42:36;;;;;;;19.58;9.80;;;;;;;-141.50;100.00;63355.56;5048138;28;20071;-79
2023/09/11 06:45:04;;;;;;;15.40;8.27;;;;;;;-141.50;100.00;63355.56;5004115;28;20061;-79
2023/09/11 06:47:31;;;;;;;18.50;9.38;;;;;;;-141.50;100.00;63355.56;5039891;28;20669;-80
2023/09/11 06:49:59;;;;;;;18.67;8.90;;;;;;;-141.50;100.00;63355.56;5059761;28;20053;-80
2023/09/11 06:52:26;;;;;;;16.50;8.65;;;;;;;-141.50;100.00;63355.56;5045684;28;20503;-79
2023/09/11 06:54:54;;;;;;;16.10;8.52;;;;;;;-141.50;100.00;63355.56;5046106;28;20058;-79
2023/09/11 06:57:22;;;;;;;15.07;8.25;;;;;;;-141.50;100.00;63355.56;5042400;28;20040;-79
2023/09/11 06:59:49;;;;;;;17.23;8.27;;;;;;;-141.50;100.00;63355.56;5062587;28;20063;-79
2023/09/11 07:02:15;;;;;;;15.50;8.30;;;;;;;-141.50;100.00;63355.56;5063923;28;20432;-79
2023/09/11 07:04:42;;;;;;;15.77;8.00;;;;;;;-141.50;100.00;63355.56;5040804;28;20046;-79
2023/09/11 07:07:09;;;;;;;13.30;7.20;;;;;;;-141.50;100.00;63355.56;5047249;28;20045;-80
2023/09/11 07:09:36;;;;;;;13.43;7.10;;;;;;;-141.50;100.00;63355.56;5064483;28;20079;-79
2023/09/11 07:12:03;;;;;;;15.35;8.05;;;;;;;-141.50;100.00;63355.56;5065250;28;20501;-79
2023/09/11 07:14:30;;;;;;;15.65;7.47;;;;;;;-141.50;100.00;63355.56;5065249;28;20041;-80
2023/09/11 07:17:00;;;;;;;19.40;8.40;;;;;;;-141.50;100.00;63355.56;5047967;28;20138;-79
2023/09/11 07:19:27;;;;;;;15.52;8.23;;;;;;;-141.50;100.00;63355.56;5048292;28;20043;-80
2023/09/11 07:21:57;;;;;;;14.70;7.65;;;;;;;-141.50;100.00;63355.56;5064498;28;20462;-79
2023/09/11 07:24:24;;;;;;;15.05;8.82;;;;;;;-141.50;100.00;63355.56;5045798;28;20117;-79
2023/09/11 07:26:50;;;;;;;15.40;7.70;;;;;;;-141.50;100.00;63355.56;5058958;28;20037;-79
2023/09/11 07:29:17;;;;;;;14.05;7.43;;;;;;;-141.50;100.00;63355.56;5032040;28;20067;-78
2023/09/11 07:31:46;;;;;;;15.38;6.88;;;;;;;-141.50;100.00;63355.56;5039829;28;20067;-79
2023/09/11 07:34:14;;;;;;;12.48;6.63;;;;;;;-141.50;100.00;63355.56;5056016;28;20296;-80
2023/09/11 07:36:44;;;;;;;10.55;6.43;;;;;;;-141.50;100.00;63355.56;5039937;28;20045;-76
2023/09/11 07:39:10;;;;;;;11.52;6.18;;;;;;;-141.50;100.00;63355.56;5050704;28;20041;-79
2023/09/11 07:41:37;;;;;;;11.55;6.47;;;;;;;-141.50;100.00;63355.56;5063163;28;20076;-79
2023/09/11 07:44:04;;;;;;;11.77;6.68;;;;;;;-141.50;100.00;63355.56;5046060;28;20057;-79
2023/09/11 07:46:31;;;;;;;16.00;6.80;;;;;;;-141.50;100.00;63355.56;5064309;28;20048;-79
2023/09/11 07:48:58;;;;;;;13.43;6.82;;;;;;;-141.50;100.00;63355.56;5063896;28;20052;-79
2023/09/11 07:51:26;;;;;;;10.60;5.93;;;;;;;-141.50;100.00;63355.56;5064788;28;20106;-79
2023/09/11 07:53:53;;;;;;;10.07;5.75;;;;;;;-141.50;100.00;63355.56;5060928;28;20046;-79
2023/09/11 07:56:20;;;;;;;13.05;6.82;;;;;;;-141.50;100.00;63355.56;5058852;28;20056;-79
2023/09/11 07:58:50;;;;;;;12.27;6.45;;;;;;;-141.50;100.00;63355.56;5058208;28;20431;-79
2023/09/11 08:01:21;;;;;;;12.18;6.00;;;;;;;-141.50;100.00;63355.56;5059359;28;20052;-79
2023/09/11 08:03:48;;;;;;;11.15;6.00;;;;;;;-141.50;100.00;63355.56;5056069;28;20045;-79
2023/09/11 08:06:16;;;;;;;9.70;5.82;;;;;;;-141.50;100.00;63355.56;5035917;28;20052;-79
2023/09/11 08:08:45;;;;;;;13.18;6.25;;;;;;;-141.50;100.00;63355.56;5028998;28;20041;-79
2023/09/11 08:11:20;;;;;;;11.23;5.78;;;;;;;-141.50;100.00;63355.56;5045571;28;20132;-79
2023/09/11 08:13:48;;;;;;;14.15;5.75;;;;;;;-141.50;100.00;63355.56;5036585;28;20049;-79
2023/09/11 08:16:16;;;;;;;11.93;5.50;;;;;;;-141.50;100.00;63355.56;5031693;28;20042;-79
2023/09/11 08:18:43;;;;;;;10.38;5.20;;;;;;;-141.50;100.00;63355.56;5031913;28;20041;-79
2023/09/11 08:21:12;;;;;;;8.77;5.18;;;;;;;-141.50;100.00;63355.56;5029978;28;20049;-79
2023/09/11 08:23:41;;;;;;;8.40;4.88;;;;;;;-141.50;100.00;63355.56;5038065;28;20049;-79
2023/09/11 08:26:09;;;;;;;9.85;5.18;;;;;;;-141.50;100.00;63355.56;5032118;28;20049;-79
2023/09/11 08:28:36;;;;;;;9.88;5.38;;;;;;;-141.50;100.00;63355.56;5039854;28;20056;-80
2023/09/11 08:31:03;;;;;;;9.25;5.30;;;;;;;-141.50;100.00;63355.56;5059417;28;20059;-80
2023/09/11 08:33:30;;;;;;;12.82;5.65;;;;;;;-141.50;100.00;63355.56;5069516;28;20028;-79
2023/09/11 08:36:17;;;;;;;10.05;5.57;;;;;;;-141.50;100.00;63355.56;5064124;28;20041;-80
2023/09/11 08:38:45;;;;;;;9.20;5.07;;;;;;;-141.50;100.00;63355.56;5049236;28;20048;-79
2023/09/11 08:41:13;;;;;;;9.43;5.43;;;;;;;-141.50;100.00;63355.56;5032621;28;20063;-79
2023/09/11 08:43:40;;;;;;;11.98;5.55;;;;;;;-141.50;100.00;63355.56;5063312;28;20052;-79
2023/09/11 08:46:09;;;;;;;9.05;5.00;;;;;;;-141.50;100.00;63355.56;5041859;28;20053;-79
2023/09/11 08:48:43;;;;;;;7.70;4.97;;;;;;;-141.50;100.00;63355.56;5023081;28;20041;-79
2023/09/11 08:51:46;;;;;;;8.27;4.70;;;;;;;-141.50;100.00;63355.56;5046662;28;20720;-79
2023/09/11 08:54:16;;;;;;;7.65;5.05;;;;;;;-141.50;100.00;63355.56;5041678;28;21273;-79
2023/09/11 08:56:45;;;;;;;8.60;5.38;;;;;;;-141.50;100.00;63355.56;5019978;28;20041;-79
2023/09/11 08:59:17;;;;;;;9.63;5.80;;;;;;;-141.50;100.00;63355.56;5036769;28;20045;-79
2023/09/11 09:01:46;;;;;;;8.43;4.82;;;;;;;-141.50;100.00;63355.56;5026898;28;20052;-79
2023/09/11 09:04:15;;;;;;;7.70;5.15;;;;;;;-141.50;100.00;63355.56;5035714;28;20060;-79
2023/09/11 09:06:46;;;;;;;9.32;4.97;;;;;;;-141.50;100.00;63355.56;5050607;28;20655;-78
2023/09/11 09:09:13;;;;;;;8.07;5.00;;;;;;;-141.50;100.00;63355.56;5047213;28;20052;-79
2023/09/11 09:11:47;;;;;;;8.70;4.85;;;;;;;-141.50;100.00;63355.56;5041008;28;20079;-79
2023/09/11 09:14:19;;;;;;;10.68;5.70;;;;;;;-141.50;100.00;63355.56;5036002;28;20051;-79
2023/09/11 09:16:47;;;;;;;8.52;4.85;;;;;;;-141.50;100.00;63355.56;5028252;28;20418;-79
2023/09/11 09:19:13;;;;;;;8.20;5.22;;;;;;;-141.50;100.00;63355.56;5032771;28;20053;-79
2023/09/11 09:22:10;;;;;;;10.75;5.05;;;;;;;-141.50;100.00;63355.56;5028149;28;20073;-79
2023/09/11 09:24:47;;;;;;;9.68;5.22;;;;;;;-141.50;100.00;63355.56;5014175;28;20045;-79
2023/09/11 09:27:16;;;;;;;7.68;4.72;;;;;;;-141.50;100.00;63355.56;5017582;28;20107;-79
2023/09/11 09:29:44;;;;;;;8.45;5.25;;;;;;;-141.50;100.00;63355.56;5030650;28;20040;-79
2023/09/11 09:32:11;;;;;;;8.63;5.00;;;;;;;-141.50;100.00;63355.56;5030344;28;20123;-79
2023/09/11 09:34:50;;;;;;;7.32;4.53;;;;;;;-141.50;100.00;63355.56;5016262;28;20052;-79
2023/09/11 09:37:18;;;;;;;11.00;5.20;;;;;;;-141.50;100.00;63355.56;5023145;28;20045;-79
2023/09/11 09:39:48;;;;;;;7.85;4.82;;;;;;;-141.50;100.00;63355.56;5034649;28;20064;-79
2023/09/11 09:42:15;;;;;;;8.20;4.80;;;;;;;-141.50;100.00;63355.56;5017755;28;20095;-79
2023/09/11 09:44:47;;;;;;;7.28;4.80;;;;;;;-141.50;100.00;63355.56;4997798;28;20037;-79
2023/09/11 09:47:19;;;;;;;8.85;5.22;;;;;;;-141.50;100.00;63355.56;5016916;28;20496;-79
2023/09/11 09:49:53;;;;;;;7.00;4.78;;;;;;;-141.50;100.00;63355.56;5052590;28;20049;-78
2023/09/11 09:52:24;;;;;;;7.97;5.30;;;;;;;-141.50;100.00;63355.56;5041147;28;20041;-79
2023/09/11 09:54:57;;;;;;;7.72;5.00;;;;;;;-141.50;100.00;63355.56;5061694;28;20099;-79
2023/09/11 09:57:26;;;;;;;7.80;4.78;;;;;;;-141.50;100.00;63355.56;5043893;28;20052;-79
2023/09/11 09:59:58;;;;;;;7.20;4.60;;;;;;;-141.50;100.00;63355.56;5042635;28;20045;-79
2023/09/11 10:02:28;;;;;;;8.38;4.45;;;;;;;-141.50;100.00;63355.56;5026637;28;20044;-79
2023/09/11 10:05:02;;;;;;;6.13;4.25;;;;;;;-141.50;100.00;63355.56;5040431;28;20110;-79
2023/09/11 10:07:38;;;;;;;7.13;4.70;;;;;;;-141.50;100.00;63355.56;5035560;28;20053;-80
2023/09/11 10:10:25;;;;;;;6.82;4.45;;;;;;;-141.50;100.00;63355.56;5034654;28;20875;-80
2023/09/11 10:13:01;;;;;;;6.28;3.97;;;;;;;-141.50;100.00;63355.56;5034013;28;20393;-81
2023/09/11 10:15:29;;;;;;;9.30;4.55;;;;;;;-141.50;100.00;63355.56;5041184;28;20052;-81
2023/09/11 10:17:57;;;;;;;7.47;4.05;;;;;;;-141.50;100.00;63355.56;5038955;28;20123;-79
2023/09/11 10:20:25;;;;;;;6.28;4.35;;;;;;;-141.50;100.00;63355.56;5037700;28;20033;-78
2023/09/11 10:22:54;;;;;;;6.15;3.80;;;;;;;-141.50;100.00;63355.56;5037905;28;20053;-82
2023/09/11 10:25:22;;;;;;;6.05;4.13;;;;;;;-141.50;100.00;63355.56;5042694;28;20047;-81
2023/09/11 10:27:53;;;;;;;6.70;4.10;;;;;;;-141.50;100.00;63355.56;5037709;28;20041;-79
2023/09/11 10:30:24;;;;;;;6.90;3.95;;;;;;;-141.50;100.00;63355.56;5050231;28;20045;-80
2023/09/11 10:33:01;;;;;;;5.45;3.70;;;;;;;-141.50;100.00;63355.56;5042132;28;20057;-80
2023/09/11 10:35:33;;;;;;;6.03;3.78;;;;;;;-141.50;100.00;63355.56;5031244;28;20041;-82
2023/09/11 10:38:03;;;;;;;5.47;3.53;;;;;;;-141.50;100.00;63355.56;5029241;28;20041;-81
2023/09/11 10:40:32;;;;;;;4.70;3.67;;;;;;;-141.50;100.00;63355.56;5050000;28;20056;-79
2023/09/11 10:42:59;;;;;;;4.38;3.38;;;;;;;-141.50;100.00;63355.56;5030967;28;20080;-81
2023/09/11 10:45:27;;;;;;;6.70;4.05;;;;;;;-141.50;100.00;63355.56;5030825;28;20045;-80
2023/09/11 10:47:54;;;;;;;5.78;4.00;;;;;;;-141.50;100.00;63355.56;5051211;28;20045;-79
2023/09/11 10:50:29;;;;;;;4.75;3.70;;;;;;;-141.50;100.00;63355.56;5031244;28;20045;-81
2023/09/11 10:52:56;;;;;;;7.45;3.67;;;;;;;-141.50;100.00;63355.56;5033286;28;20041;-79
2023/09/11 10:55:24;;;;;;;5.65;3.95;;;;;;;-141.50;100.00;63355.56;5044766;28;21701;-79
2023/09/11 10:57:57;;;;;;;4.72;3.47;;;;;;;-141.50;100.00;63355.56;5033234;28;20123;-82
2023/09/11 11:00:26;;;;;;;4.85;3.58;;;;;;;-141.50;100.00;63355.56;5022112;28;20051;-79
2023/09/11 11:02:56;;;;;;;4.68;3.30;;;;;;;-141.50;100.00;63355.56;5014449;28;1166391;-80
2023/09/11 11:05:25;;;;;;;4.88;3.65;;;;;;;-141.50;100.00;63355.56;5056581;28;20081;-80
2023/09/11 11:07:52;;;;;;;6.97;4.15;;;;;;;-141.50;100.00;63355.56;5038384;28;20079;-79
2023/09/11 11:10:19;;;;;;;4.25;3.20;;;;;;;-141.50;100.00;63355.56;5061058;28;20041;-79